Time;durP1;ratioP1;P1;durP2;ratioP2;P2;SDS_P1;SDS_P2;PMS_P1;PMS_P2;Temp;Humidity;BMP_temperature;BMP_pressure;BME280_temperature;BME280_humidity;BME280_pressure;Samples;Min_cycle;Max_cycle;Signal;HPM_P1;HPM_P2
2022/05/30 00:00:55;;;;;;;;;;;16.40;91.20;;;;;;5094023;28;19927;-71
2022/05/30 00:03:20;;;;;;;;;;;16.40;91.30;;;;;;5094281;28;19927;-71
2022/05/30 00:05:47;;;;;;;;;;;16.40;91.70;;;;;;5093845;28;19912;-71
2022/05/30 00:08:17;;;;;;;;;;;16.40;91.80;;;;;;5094324;28;20302;-72
2022/05/30 00:10:43;;;;;;;;;;;16.40;92.00;;;;;;5094178;28;19916;-72
2022/05/30 00:13:09;;;;;;;;;;;16.30;92.20;;;;;;5093885;28;19918;-72
2022/05/30 00:15:36;;;;;;;;;;;16.40;92.80;;;;;;5094064;28;20018;-71
2022/05/30 00:18:01;;;;;;;;;;;16.40;92.60;;;;;;5092588;28;19916;-71
2022/05/30 00:20:27;;;;;;;;;;;16.40;92.60;;;;;;5093622;28;20461;-71
2022/05/30 00:22:52;;;;;;;;;;;16.30;92.80;;;;;;5093672;28;19919;-71
2022/05/30 00:25:18;;;;;;;;;;;16.20;93.00;;;;;;5093947;28;19916;-70
2022/05/30 00:27:44;;;;;;;;;;;16.30;93.50;;;;;;5093461;28;19912;-72
2022/05/30 00:30:10;;;;;;;;;;;16.30;94.00;;;;;;5093326;28;19912;-71
2022/05/30 00:32:35;;;;;;;;;;;16.30;94.10;;;;;;5093544;28;19912;-70
2022/05/30 00:35:02;;;;;;;;;;;16.30;94.40;;;;;;5093655;28;19937;-71
2022/05/30 00:37:28;;;;;;;;;;;16.30;94.30;;;;;;5093688;28;20011;-71
2022/05/30 00:39:54;;;;;;;;;;;16.20;94.60;;;;;;5093343;28;20342;-71
2022/05/30 00:42:21;;;;;;;;;;;16.10;94.90;;;;;;5091909;28;19951;-70
2022/05/30 00:44:48;;;;;;;;;;;16.10;95.10;;;;;;5093421;28;19955;-71
2022/05/30 00:47:14;;;;;;;;;;;16.10;95.30;;;;;;5091935;28;19942;-70
2022/05/30 00:49:41;;;;;;;;;;;16.20;95.50;;;;;;5093311;28;19912;-71
2022/05/30 00:52:09;;;;;;;;;;;16.10;96.20;;;;;;5093142;28;19912;-71
2022/05/30 00:54:42;;;;;;;;;;;16.10;96.50;;;;;;5091810;28;20403;-71
2022/05/30 00:57:22;;;;;;;;;;;16.10;96.70;;;;;;5092920;28;19912;-71
2022/05/30 00:59:52;;;;;;;;;;;16.10;96.80;;;;;;5093315;28;20420;-71
2022/05/30 01:02:19;;;;;;;;;;;16.10;97.10;;;;;;5092802;28;20412;-72
2022/05/30 01:07:28;;;;;;;;;;;16.00;97.80;;;;;;5093075;28;19966;-71
2022/05/30 01:09:55;;;;;;;;;;;15.90;98.50;;;;;;5092992;28;20287;-71
2022/05/30 01:12:33;;;;;;;;;;;15.80;99.20;;;;;;5093019;28;20007;-71
2022/05/30 01:14:58;;;;;;;;;;;15.70;99.70;;;;;;5091599;28;20364;-71
2022/05/30 01:17:24;;;;;;;;;;;15.70;99.90;;;;;;5092741;28;19912;-70
2022/05/30 01:19:56;;;;;;;;;;;15.60;99.90;;;;;;5092604;28;20124;-71
2022/05/30 01:22:39;;;;;;;;;;;15.60;99.90;;;;;;5092606;28;19920;-71
2022/05/30 01:25:12;;;;;;;;;;;15.50;99.90;;;;;;5092566;28;19912;-71
2022/05/30 01:27:37;;;;;;;;;;;15.40;99.90;;;;;;5092140;28;20332;-71
2022/05/30 01:30:05;;;;;;;;;;;15.40;99.90;;;;;;5090806;28;19912;-71
2022/05/30 01:32:31;;;;;;;;;;;15.30;99.90;;;;;;5092124;28;19920;-71
2022/05/30 01:34:56;;;;;;;;;;;15.30;99.90;;;;;;5092233;28;19912;-71
2022/05/30 01:37:24;;;;;;;;;;;15.20;99.90;;;;;;5092108;28;19998;-71
2022/05/30 01:39:49;;;;;;;;;;;15.20;99.90;;;;;;5092301;28;19912;-71
2022/05/30 01:42:16;;;;;;;;;;;15.10;99.90;;;;;;5091289;28;19939;-70
2022/05/30 01:44:41;;;;;;;;;;;15.10;99.90;;;;;;5092192;28;20036;-71
2022/05/30 01:47:07;;;;;;;;;;;15.10;99.90;;;;;;5092073;28;20030;-71
2022/05/30 01:49:32;;;;;;;;;;;15.00;99.90;;;;;;5092277;28;19916;-70
2022/05/30 01:51:58;;;;;;;;;;;14.90;99.90;;;;;;5091909;28;20425;-71
2022/05/30 01:54:23;;;;;;;;;;;14.90;99.90;;;;;;5090741;28;19912;-71
2022/05/30 01:56:49;;;;;;;;;;;14.90;99.90;;;;;;5092015;28;19912;-73
2022/05/30 01:59:15;;;;;;;;;;;14.90;99.90;;;;;;5091786;28;19908;-71
2022/05/30 02:01:42;;;;;;;;;;;14.90;99.90;;;;;;5091659;28;19920;-70
2022/05/30 02:04:08;;;;;;;;;;;14.90;99.90;;;;;;5091552;28;19912;-72
2022/05/30 02:06:35;;;;;;;;;;;14.90;99.90;;;;;;5091743;28;19912;-72
2022/05/30 02:09:00;;;;;;;;;;;14.90;99.90;;;;;;5091674;28;19994;-71
2022/05/30 02:11:26;;;;;;;;;;;14.90;99.90;;;;;;5091855;28;19952;-71
2022/05/30 02:13:51;;;;;;;;;;;15.00;99.90;;;;;;5091715;28;19923;-71
2022/05/30 02:19:01;;;;;;;;;;;15.20;99.90;;;;;;5091676;28;19970;-71
2022/05/30 02:21:27;;;;;;;;;;;15.10;99.90;;;;;;5091169;28;20402;-71
2022/05/30 02:23:52;;;;;;;;;;;15.10;99.90;;;;;;5091327;28;19908;-72
2022/05/30 02:26:18;;;;;;;;;;;15.00;99.90;;;;;;5090232;28;19923;-71
2022/05/30 02:28:43;;;;;;;;;;;15.10;99.90;;;;;;5091297;28;20003;-71
2022/05/30 02:31:09;;;;;;;;;;;15.10;99.90;;;;;;5091844;28;20010;-72
2022/05/30 02:39:03;;;;;;;;;;;15.00;99.90;;;;;;5091226;28;19961;-71
2022/05/30 02:41:28;;;;;;;;;;;15.00;99.90;;;;;;5089898;28;19919;-70
2022/05/30 02:43:54;;;;;;;;;;;14.90;99.90;;;;;;5091354;28;19908;-72
2022/05/30 02:46:19;;;;;;;;;;;14.80;99.90;;;;;;5091903;28;19912;-71
2022/05/30 02:48:45;;;;;;;;;;;14.80;99.90;;;;;;5091250;28;19924;-71
2022/05/30 02:51:10;;;;;;;;;;;14.90;99.90;;;;;;5091649;28;19916;-71
2022/05/30 02:53:36;;;;;;;;;;;14.80;99.90;;;;;;5092409;28;20252;-71
2022/05/30 02:56:02;;;;;;;;;;;14.90;99.90;;;;;;5095751;28;19931;-72
2022/05/30 02:58:27;;;;;;;;;;;15.00;99.90;;;;;;5095215;28;19912;-71
2022/05/30 03:00:53;;;;;;;;;;;15.00;99.90;;;;;;5095520;28;19919;-71
2022/05/30 03:03:18;;;;;;;;;;;15.00;99.90;;;;;;5095111;28;19912;-71
2022/05/30 03:05:44;;;;;;;;;;;15.00;99.90;;;;;;5093817;28;19912;-71
2022/05/30 03:08:11;;;;;;;;;;;15.00;99.90;;;;;;5095080;28;20330;-72
2022/05/30 03:10:36;;;;;;;;;;;15.00;99.90;;;;;;5095543;28;20134;-71
2022/05/30 03:13:03;;;;;;;;;;;15.00;99.90;;;;;;5094942;28;20023;-72
2022/05/30 03:15:28;;;;;;;;;;;15.00;99.90;;;;;;5095357;28;19908;-72
2022/05/30 03:17:54;;;;;;;;;;;15.00;99.90;;;;;;5095061;28;19970;-72
2022/05/30 03:20:19;;;;;;;;;;;14.90;99.90;;;;;;5094703;28;19960;-71
2022/05/30 03:22:46;;;;;;;;;;;15.00;99.90;;;;;;5094789;28;19963;-71
2022/05/30 03:25:12;;;;;;;;;;;15.00;99.90;;;;;;5095068;28;19948;-71
2022/05/30 03:27:37;;;;;;;;;;;14.90;99.90;;;;;;5094784;28;19959;-71
2022/05/30 03:30:03;;;;;;;;;;;14.90;99.90;;;;;;5095010;28;19966;-71
2022/05/30 03:32:29;;;;;;;;;;;14.90;99.90;;;;;;5094653;28;19962;-71
2022/05/30 03:34:54;;;;;;;;;;;14.90;99.90;;;;;;5093152;28;19991;-71
2022/05/30 03:37:20;;;;;;;;;;;14.80;99.90;;;;;;5094606;28;19913;-71
2022/05/30 03:39:45;;;;;;;;;;;14.80;99.90;;;;;;5094332;28;20276;-71
2022/05/30 03:42:14;;;;;;;;;;;14.80;99.90;;;;;;5093033;28;19951;-71
2022/05/30 03:44:40;;;;;;;;;;;14.70;99.90;;;;;;5094533;28;19912;-71
2022/05/30 03:47:06;;;;;;;;;;;14.70;99.90;;;;;;5094343;28;19935;-71
2022/05/30 03:49:31;;;;;;;;;;;14.70;99.90;;;;;;5094375;28;19916;-71
2022/05/30 03:51:58;;;;;;;;;;;14.70;99.90;;;;;;5094163;28;19912;-71
2022/05/30 03:54:23;;;;;;;;;;;14.60;99.90;;;;;;5094086;28;19916;-71
2022/05/30 03:56:49;;;;;;;;;;;14.70;99.90;;;;;;5094081;28;20383;-72
2022/05/30 03:59:14;;;;;;;;;;;14.70;99.90;;;;;;5092723;28;20393;-72
2022/05/30 04:01:40;;;;;;;;;;;14.70;99.90;;;;;;5092563;28;20330;-72
2022/05/30 04:04:05;;;;;;;;;;;14.70;99.90;;;;;;5092500;28;19944;-72
2022/05/30 04:06:31;;;;;;;;;;;14.80;99.90;;;;;;5093144;28;19962;-70
2022/05/30 04:08:56;;;;;;;;;;;15.60;99.90;;;;;;5093365;28;20275;-70
2022/05/30 04:11:22;;;;;;;;;;;14.80;99.90;;;;;;5093926;28;19912;-72
2022/05/30 04:13:48;;;;;;;;;;;14.80;99.90;;;;;;5093820;28;19908;-71
2022/05/30 04:16:13;;;;;;;;;;;14.70;99.90;;;;;;5094209;28;20008;-70
2022/05/30 04:18:39;;;;;;;;;;;14.70;99.90;;;;;;5092270;28;20309;-71
2022/05/30 04:21:09;;;;;;;;;;;14.70;99.90;;;;;;5093403;28;19920;-70
2022/05/30 04:23:34;;;;;;;;;;;14.70;99.90;;;;;;5093643;28;19913;-70
2022/05/30 04:26:02;;;;;;;;;;;14.70;99.90;;;;;;5093759;28;19912;-70
2022/05/30 04:28:28;;;;;;;;;;;14.70;99.90;;;;;;5093567;28;19916;-71
2022/05/30 04:30:53;;;;;;;;;;;14.60;99.90;;;;;;5093888;28;19919;-71
2022/05/30 04:33:19;;;;;;;;;;;14.60;99.90;;;;;;5093332;28;19919;-70
2022/05/30 04:35:44;;;;;;;;;;;14.60;99.90;;;;;;5093650;28;20366;-70
2022/05/30 04:38:09;;;;;;;;;;;14.70;99.90;;;;;;5093446;28;19957;-71
2022/05/30 04:40:35;;;;;;;;;;;14.70;99.90;;;;;;5093502;28;19927;-72
2022/05/30 04:43:00;;;;;;;;;;;14.70;99.90;;;;;;5093184;28;19916;-70
2022/05/30 04:45:26;;;;;;;;;;;14.70;99.90;;;;;;5093504;28;19912;-71
2022/05/30 04:47:52;;;;;;;;;;;14.80;99.90;;;;;;5091998;28;19923;-71
2022/05/30 04:50:17;;;;;;;;;;;14.70;99.90;;;;;;5093299;28;19912;-71
2022/05/30 04:52:44;;;;;;;;;;;14.70;99.90;;;;;;5093125;28;19912;-70
2022/05/30 04:55:10;;;;;;;;;;;14.80;99.90;;;;;;5093020;28;19916;-72
2022/05/30 04:57:43;;;;;;;;;;;14.80;99.90;;;;;;5091681;28;19912;-71
2022/05/30 05:00:10;;;;;;;;;;;14.80;99.90;;;;;;5093112;28;19919;-71
2022/05/30 05:02:36;;;;;;;;;;;14.80;99.90;;;;;;5092550;28;19919;-70
2022/05/30 05:05:01;;;;;;;;;;;14.80;99.90;;;;;;5092409;28;20273;-71
2022/05/30 05:07:27;;;;;;;;;;;14.80;99.90;;;;;;5092778;28;19912;-72
2022/05/30 05:09:56;;;;;;;;;;;14.60;99.90;;;;;;5092732;28;19912;-72
2022/05/30 05:12:22;;;;;;;;;;;14.60;99.90;;;;;;5092877;28;19916;-72
2022/05/30 05:14:47;;;;;;;;;;;14.60;99.90;;;;;;5092806;28;20348;-69
2022/05/30 05:17:13;;;;;;;;;;;14.60;99.90;;;;;;5092543;28;19935;-72
2022/05/30 05:19:39;;;;;;;;;;;14.60;99.90;;;;;;5090935;28;19918;-71
2022/05/30 05:22:06;;;;;;;;;;;14.50;99.90;;;;;;5092304;28;19951;-72
2022/05/30 05:24:31;;;;;;;;;;;14.60;99.90;;;;;;5090848;28;19916;-71
2022/05/30 05:26:57;;;;;;;;;;;14.50;99.90;;;;;;5090809;28;19912;-73
2022/05/30 05:29:22;;;;;;;;;;;14.50;99.90;;;;;;5090903;28;20291;-72
2022/05/30 05:31:48;;;;;;;;;;;14.50;99.90;;;;;;5092146;28;19912;-72
2022/05/30 05:34:14;;;;;;;;;;;14.50;99.90;;;;;;5092068;28;19908;-71
2022/05/30 05:36:41;;;;;;;;;;;14.40;99.90;;;;;;5091931;28;19912;-71
2022/05/30 05:39:07;;;;;;;;;;;14.40;99.90;;;;;;5092171;28;19974;-71
2022/05/30 05:41:33;;;;;;;;;;;14.40;99.90;;;;;;5091912;28;20021;-70
2022/05/30 05:43:58;;;;;;;;;;;14.40;99.90;;;;;;5091782;28;19916;-70
2022/05/30 05:46:26;;;;;;;;;;;14.50;99.90;;;;;;5092148;28;19912;-71
2022/05/30 05:48:52;;;;;;;;;;;14.40;99.90;;;;;;5090983;28;20384;-70
2022/05/30 05:51:19;;;;;;;;;;;14.40;99.90;;;;;;5090692;28;20041;-70
2022/05/30 05:53:46;;;;;;;;;;;14.40;99.90;;;;;;5091909;28;20425;-70
2022/05/30 05:56:12;;;;;;;;;;;14.40;99.90;;;;;;5092225;28;19916;-71
2022/05/30 05:58:38;;;;;;;;;;;14.40;99.90;;;;;;5091844;28;19965;-70
2022/05/30 06:01:10;;;;;;;;;;;14.40;99.90;;;;;;5090441;28;20305;-71
2022/05/30 06:03:36;;;;;;;;;;;14.40;99.90;;;;;;5090359;28;19912;-72
2022/05/30 06:06:03;;;;;;;;;;;14.40;99.90;;;;;;5091575;28;19920;-72
2022/05/30 06:08:28;;;;;;;;;;;14.40;99.90;;;;;;5090422;28;20269;-69
2022/05/30 06:11:08;;;;;;;;;;;14.30;99.90;;;;;;5090334;28;19919;-71
2022/05/30 06:13:44;;;;;;;;;;;14.30;99.90;;;;;;5091618;28;19916;-72
2022/05/30 06:16:11;;;;;;;;;;;14.40;99.90;;;;;;5091964;28;19998;-71
2022/05/30 06:18:37;;;;;;;;;;;14.40;99.90;;;;;;5091746;28;20304;-71
2022/05/30 06:21:03;;;;;;;;;;;14.50;99.90;;;;;;5089930;28;19981;-71
2022/05/30 06:23:29;;;;;;;;;;;14.40;99.90;;;;;;5090148;28;19913;-71
2022/05/30 06:25:54;;;;;;;;;;;14.40;99.90;;;;;;5090148;28;20546;-72
2022/05/30 06:28:20;;;;;;;;;;;14.40;99.90;;;;;;5091015;28;19962;-72
2022/05/30 06:30:45;;;;;;;;;;;14.40;99.90;;;;;;5090198;28;19916;-71
2022/05/30 06:33:11;;;;;;;;;;;14.30;99.90;;;;;;5090062;28;19913;-71
2022/05/30 06:35:44;;;;;;;;;;;14.30;99.90;;;;;;5091630;28;19913;-72
2022/05/30 06:38:10;;;;;;;;;;;14.20;99.90;;;;;;5091441;28;19920;-71
2022/05/30 06:40:36;;;;;;;;;;;14.10;99.90;;;;;;5091617;28;19912;-71
2022/05/30 06:43:01;;;;;;;;;;;14.00;99.90;;;;;;5091236;28;20010;-70
2022/05/30 06:45:27;;;;;;;;;;;13.90;99.90;;;;;;5091686;28;19981;-71
2022/05/30 06:47:53;;;;;;;;;;;14.00;99.90;;;;;;5091195;28;20326;-71
2022/05/30 06:50:18;;;;;;;;;;;13.90;99.90;;;;;;5089976;28;19958;-71
2022/05/30 06:52:44;;;;;;;;;;;13.90;99.90;;;;;;5091455;28;19920;-71
2022/05/30 06:55:09;;;;;;;;;;;13.90;99.90;;;;;;5091580;28;19919;-71
2022/05/30 07:00:20;;;;;;;;;;;13.80;99.90;;;;;;5091404;28;19973;-71
2022/05/30 07:02:46;;;;;;;;;;;13.80;99.90;;;;;;5090952;28;19916;-71
2022/05/30 07:05:12;;;;;;;;;;;13.70;99.90;;;;;;5090926;28;19916;-71
2022/05/30 07:07:38;;;;;;;;;;;13.70;99.90;;;;;;5091021;28;20024;-71
2022/05/30 07:10:04;;;;;;;;;;;13.80;99.90;;;;;;5091299;28;19919;-70
2022/05/30 07:12:30;;;;;;;;;;;13.70;99.90;;;;;;5090777;28;19912;-71
2022/05/30 07:14:55;;;;;;;;;;;13.70;99.90;;;;;;5091216;28;19932;-71
2022/05/30 07:17:21;;;;;;;;;;;13.60;99.90;;;;;;5091583;28;20390;-71
2022/05/30 07:19:47;;;;;;;;;;;13.50;99.90;;;;;;5091050;28;19922;-72
2022/05/30 07:22:12;;;;;;;;;;;13.60;99.90;;;;;;5090951;28;20360;-71
2022/05/30 07:24:38;;;;;;;;;;;13.60;99.90;;;;;;5089787;28;19912;-71
2022/05/30 07:27:04;;;;;;;;;;;13.60;99.90;;;;;;5091046;28;19912;-70
2022/05/30 07:29:29;;;;;;;;;;;13.70;99.90;;;;;;5090803;28;20466;-71
2022/05/30 07:31:59;;;;;;;;;;;13.70;99.90;;;;;;5089299;28;20359;-70
2022/05/30 07:34:25;;;;;;;;;;;13.70;99.90;;;;;;5090697;28;19981;-71
2022/05/30 07:36:50;;;;;;;;;;;13.70;99.90;;;;;;5089303;28;19919;-71
2022/05/30 07:39:16;;;;;;;;;;;13.80;99.90;;;;;;5090668;28;20283;-70
2022/05/30 07:41:42;;;;;;;;;;;13.80;99.90;;;;;;5093292;28;20314;-70
2022/05/30 07:44:07;;;;;;;;;;;13.70;99.90;;;;;;5094286;28;19913;-71
2022/05/30 07:46:33;;;;;;;;;;;13.70;99.90;;;;;;5093270;28;19919;-71
2022/05/30 07:48:59;;;;;;;;;;;13.80;99.90;;;;;;5092768;28;19935;-71
2022/05/30 07:51:24;;;;;;;;;;;13.80;99.90;;;;;;5092744;28;19956;-64
2022/05/30 07:53:49;;;;;;;;;;;13.80;99.90;;;;;;5094038;28;20364;-64
2022/05/30 07:56:16;;;;;;;;;;;13.90;99.90;;;;;;5094680;28;19981;-63
2022/05/30 07:58:42;;;;;;;;;;;14.00;99.90;;;;;;5080438;28;20377;-63
2022/05/30 08:01:10;;;;;;;;;;;14.00;99.90;;;;;;5091374;28;20013;-63
2022/05/30 08:03:36;;;;;;;;;;;14.00;99.90;;;;;;5074428;28;19919;-62
2022/05/30 08:06:02;;;;;;;;;;;14.10;99.90;;;;;;5083109;28;19999;-64
2022/05/30 08:08:28;;;;;;;;;;;14.10;99.90;;;;;;5094859;28;19955;-62
2022/05/30 08:10:54;;;;;;;;;;;14.10;99.90;;;;;;5093430;28;19943;-63
2022/05/30 08:13:20;;;;;;;;;;;14.10;99.90;;;;;;5094505;28;19919;-63
2022/05/30 08:15:45;;;;;;;;;;;14.20;99.90;;;;;;5075080;28;20272;-63
2022/05/30 08:18:14;;;;;;;;;;;14.10;99.90;;;;;;5074142;28;19912;-63
2022/05/30 08:20:40;;;;;;;;;;;14.20;99.90;;;;;;5074010;28;19928;-64
2022/05/30 08:23:06;;;;;;;;;;;14.20;99.90;;;;;;5074058;28;19923;-64
2022/05/30 08:25:31;;;;;;;;;;;14.30;99.90;;;;;;5074109;28;20249;-64
2022/05/30 08:27:57;;;;;;;;;;;14.40;99.90;;;;;;5073315;28;19913;-62
2022/05/30 08:30:22;;;;;;;;;;;14.40;99.90;;;;;;5074090;28;19919;-62
2022/05/30 08:32:49;;;;;;;;;;;14.30;99.90;;;;;;5073994;28;19913;-64
2022/05/30 08:35:15;;;;;;;;;;;14.40;99.90;;;;;;5072309;28;19913;-63
2022/05/30 08:37:42;;;;;;;;;;;14.50;99.90;;;;;;5071883;28;19920;-63
2022/05/30 08:42:55;;;;;;;;;;;14.60;99.90;;;;;;5073540;28;20319;-63
2022/05/30 08:45:22;;;;;;;;;;;14.70;99.90;;;;;;5073467;28;19916;-64
2022/05/30 08:47:57;;;;;;;;;;;14.70;99.90;;;;;;5073499;28;19942;-63
2022/05/30 08:50:31;;;;;;;;;;;14.80;99.90;;;;;;5073369;28;20276;-63
2022/05/30 08:53:09;;;;;;;;;;;14.70;99.90;;;;;;5073252;28;20349;-63
2022/05/30 08:55:34;;;;;;;;;;;14.80;99.90;;;;;;5073389;28;19913;-63
2022/05/30 08:58:07;;;;;;;;;;;14.80;99.90;;;;;;5074324;28;20387;-62
2022/05/30 09:00:32;;;;;;;;;;;14.80;99.90;;;;;;5093903;28;20342;-63
2022/05/30 09:03:01;;;;;;;;;;;14.80;99.90;;;;;;5093468;28;19920;-63
2022/05/30 09:05:30;;;;;;;;;;;14.80;99.90;;;;;;5087953;28;20015;-63
2022/05/30 09:07:57;;;;;;;;;;;14.80;99.90;;;;;;5073025;28;19912;-63
2022/05/30 09:10:23;;;;;;;;;;;14.80;99.90;;;;;;5072993;28;19966;-63
2022/05/30 09:12:48;;;;;;;;;;;14.90;99.90;;;;;;5071911;28;19912;-63
2022/05/30 09:15:24;;;;;;;;;;;14.90;99.90;;;;;;5073051;28;19913;-63
2022/05/30 09:18:01;;;;;;;;;;;14.90;99.90;;;;;;5073181;28;19966;-64
2022/05/30 09:20:28;;;;;;;;;;;14.80;99.90;;;;;;5072852;28;19920;-63
2022/05/30 09:22:53;;;;;;;;;;;15.00;99.90;;;;;;5072824;28;20010;-73
2022/05/30 09:28:05;;;;;;;;;;;14.90;99.90;;;;;;5073163;28;19981;-70
2022/05/30 09:30:35;;;;;;;;;;;14.90;99.90;;;;;;5072818;28;19999;-71
2022/05/30 09:33:08;;;;;;;;;;;15.00;99.90;;;;;;5090114;28;19919;-70
2022/05/30 09:35:34;;;;;;;;;;;15.00;99.90;;;;;;5113320;27;19926;-71
2022/05/30 09:38:07;;;;;;;;;;;15.10;99.90;;;;;;5113187;28;19911;-64
2022/05/30 09:40:44;;;;;;;;;;;15.30;99.90;;;;;;5113063;28;19915;-62
2022/05/30 09:43:13;;;;;;;;;;;15.50;99.90;;;;;;5113218;28;19916;-62
2022/05/30 09:45:39;;;;;;;;;;;15.70;99.90;;;;;;5113252;28;19918;-63
2022/05/30 09:48:07;;;;;;;;;;;15.90;99.90;;;;;;5113013;28;19911;-63
2022/05/30 09:50:40;;;;;;;;;;;16.00;99.90;;;;;;5113091;28;19916;-62
2022/05/30 09:53:05;;;;;;;;;;;16.00;99.90;;;;;;5113268;28;20470;-63
2022/05/30 09:55:33;;;;;;;;;;;16.10;99.90;;;;;;5112932;28;20007;-62
2022/05/30 09:58:00;;;;;;;;;;;16.10;99.90;;;;;;5113279;28;19958;-62
2022/05/30 10:00:47;;;;;;;;;;;16.10;99.90;;;;;;5074004;28;19916;-62
2022/05/30 10:03:30;;;;;;;;;;;16.10;99.90;;;;;;5071543;28;19921;-62
2022/05/30 10:06:10;;;;;;;;;;;16.10;99.90;;;;;;5072169;28;20409;-64
2022/05/30 10:08:36;;;;;;;;;;;16.10;99.90;;;;;;5071829;28;20287;-63
2022/05/30 10:11:01;;;;;;;;;;;16.10;99.90;;;;;;5072145;28;19912;-62
2022/05/30 10:13:34;;;;;;;;;;;16.20;99.90;;;;;;5071736;28;19912;-62
2022/05/30 10:16:00;;;;;;;;;;;16.30;99.90;;;;;;5072165;28;20027;-62
2022/05/30 10:18:27;;;;;;;;;;;16.40;99.90;;;;;;5072253;28;19955;-63
2022/05/30 10:21:26;;;;;;;;;;;16.40;99.90;;;;;;5071671;28;19924;-62
2022/05/30 10:28:14;;;;;;;;;;;16.40;99.90;;;;;;5071199;28;21333;-63
2022/05/30 10:29:32;;;;;;;;;;;16.40;99.90;;;;;;5071539;28;19912;-63
2022/05/30 10:32:00;;;;;;;;;;;16.40;99.90;;;;;;5071486;28;20007;-62
2022/05/30 10:34:51;;;;;;;;;;;16.50;99.90;;;;;;5070137;28;19916;-62
2022/05/30 10:37:35;;;;;;;;;;;16.50;99.90;;;;;;5071568;28;19935;-64
2022/05/30 10:40:19;;;;;;;;;;;16.60;99.90;;;;;;5071718;28;19919;-62
2022/05/30 10:42:47;;;;;;;;;;;16.60;99.90;;;;;;5071458;28;20014;-63
2022/05/30 10:45:18;;;;;;;;;;;16.60;99.90;;;;;;5071704;28;19961;-63
2022/05/30 10:47:45;;;;;;;;;;;16.60;99.90;;;;;;5071614;28;19920;-63
2022/05/30 10:50:23;;;;;;;;;;;16.60;99.90;;;;;;5071606;28;19912;-63
2022/05/30 10:53:00;;;;;;;;;;;16.50;99.90;;;;;;5071898;28;19913;-62
2022/05/30 10:55:35;;;;;;;;;;;16.50;99.90;;;;;;5071621;28;19912;-63
2022/05/30 10:58:02;;;;;;;;;;;16.50;99.90;;;;;;5071567;28;19935;-64
2022/05/30 11:00:35;;;;;;;;;;;16.50;99.90;;;;;;5089627;28;20284;-66
2022/05/30 11:03:10;;;;;;;;;;;16.50;99.90;;;;;;5089640;28;20022;-64
2022/05/30 11:05:44;;;;;;;;;;;16.50;99.90;;;;;;5084366;28;19979;-64
2022/05/30 11:08:14;;;;;;;;;;;16.60;99.90;;;;;;5070906;28;20302;-64
2022/05/30 11:10:46;;;;;;;;;;;16.60;99.90;;;;;;5071150;28;19938;-66
2022/05/30 11:13:30;;;;;;;;;;;16.60;99.90;;;;;;5071175;28;19913;-64
2022/05/30 11:15:58;;;;;;;;;;;16.60;99.90;;;;;;5074545;28;20357;-64
2022/05/30 11:18:40;;;;;;;;;;;16.60;99.90;;;;;;5074821;28;19913;-64
2022/05/30 11:21:24;;;;;;;;;;;16.60;99.90;;;;;;5074216;28;19966;-64
2022/05/30 11:23:50;;;;;;;;;;;16.60;99.90;;;;;;5074231;28;19916;-64
2022/05/30 11:26:34;;;;;;;;;;;16.60;99.90;;;;;;5074716;28;19958;-64
2022/05/30 11:29:12;;;;;;;;;;;16.60;99.90;;;;;;5074217;28;19916;-64
2022/05/30 11:31:46;;;;;;;;;;;16.70;99.90;;;;;;5074250;28;19917;-64
2022/05/30 11:34:14;;;;;;;;;;;16.60;99.90;;;;;;5074485;28;19913;-65
2022/05/30 11:36:55;;;;;;;;;;;16.60;99.90;;;;;;5074448;28;19928;-64
2022/05/30 11:39:39;;;;;;;;;;;16.60;99.90;;;;;;5074489;28;20267;-65
2022/05/30 11:42:04;;;;;;;;;;;16.60;99.90;;;;;;5074226;28;19927;-64
2022/05/30 11:44:33;;;;;;;;;;;16.60;99.90;;;;;;5074045;28;19912;-65
2022/05/30 11:46:58;;;;;;;;;;;16.70;99.90;;;;;;5073871;28;19956;-64
2022/05/30 11:49:24;;;;;;;;;;;16.80;99.90;;;;;;5073896;28;19978;-63
2022/05/30 11:51:49;;;;;;;;;;;16.80;99.90;;;;;;5074046;28;19921;-63
2022/05/30 11:54:27;;;;;;;;;;;16.90;99.90;;;;;;5073880;28;19991;-63
2022/05/30 11:57:11;;;;;;;;;;;16.90;99.90;;;;;;5073760;28;19927;-65
2022/05/30 11:59:37;;;;;;;;;;;17.00;99.90;;;;;;5075957;28;19908;-63
2022/05/30 12:02:05;;;;;;;;;;;17.00;99.90;;;;;;5073718;28;19931;-64
2022/05/30 12:04:30;;;;;;;;;;;17.10;99.90;;;;;;5073489;28;20186;-65
2022/05/30 12:07:06;;;;;;;;;;;17.20;99.90;;;;;;5091715;28;19948;-63
2022/05/30 12:09:40;;;;;;;;;;;17.20;99.90;;;;;;5094077;28;20363;-64
2022/05/30 12:12:28;;;;;;;;;;;17.30;99.90;;;;;;5093607;28;19916;-63
2022/05/30 12:15:13;;;;;;;;;;;17.40;99.90;;;;;;5093675;28;20037;-63
2022/05/30 12:23:48;;;;;;;;;;;17.30;99.90;;;;;;5093534;28;19919;-63
2022/05/30 12:23:50;;;;;;;;;;;17.40;99.90;;;;;;5093512;28;19985;-65
2022/05/30 12:26:16;;;;;;;;;;;17.50;99.90;;;;;;5093093;28;19959;-63
2022/05/30 12:28:42;;;;;;;;;;;17.60;99.90;;;;;;5093708;28;19970;-63
2022/05/30 12:31:08;;;;;;;;;;;17.60;99.90;;;;;;5094202;28;20290;-63
2022/05/30 12:33:33;;;;;;;;;;;17.60;99.90;;;;;;5093619;28;20255;-65
2022/05/30 12:36:08;;;;;;;;;;;17.70;99.90;;;;;;5094368;28;20367;-64
2022/05/30 12:38:48;;;;;;;;;;;17.60;99.90;;;;;;5093894;28;19915;-64
2022/05/30 12:41:20;;;;;;;;;;;17.70;99.90;;;;;;5093944;28;19915;-64
2022/05/30 12:43:46;;;;;;;;;;;17.70;99.90;;;;;;5092076;28;19935;-63
2022/05/30 12:46:16;;;;;;;;;;;17.80;99.90;;;;;;5093502;28;20355;-63
2022/05/30 12:48:42;;;;;;;;;;;17.80;99.90;;;;;;5093648;28;19920;-64
2022/05/30 12:51:11;;;;;;;;;;;17.80;99.90;;;;;;5093946;28;19913;-63
2022/05/30 12:53:55;;;;;;;;;;;17.80;99.90;;;;;;5091941;28;20047;-63
2022/05/30 12:56:48;;;;;;;;;;;17.80;99.90;;;;;;5093281;28;20259;-63
2022/05/30 12:59:18;;;;;;;;;;;17.80;99.90;;;;;;5084745;28;19912;-64
2022/05/30 13:01:43;;;;;;;;;;;17.80;99.90;;;;;;5072736;28;19969;-64
2022/05/30 13:04:15;;;;;;;;;;;17.70;99.90;;;;;;5072786;28;19912;-64
2022/05/30 13:07:04;;;;;;;;;;;17.80;99.90;;;;;;5088738;28;19995;-64
2022/05/30 13:09:41;;;;;;;;;;;17.80;99.90;;;;;;5085305;28;19961;-63
2022/05/30 13:12:11;;;;;;;;;;;17.90;99.90;;;;;;5093197;28;19942;-63
2022/05/30 13:14:37;;;;;;;;;;;17.90;99.90;;;;;;5092914;28;20023;-64
2022/05/30 13:17:23;;;;;;;;;;;18.00;99.90;;;;;;5092999;28;20683;-65
2022/05/30 13:19:52;;;;;;;;;;;18.00;99.90;;;;;;5092862;28;19912;-64
2022/05/30 13:22:37;;;;;;;;;;;18.00;99.90;;;;;;5092593;28;20384;-64
2022/05/30 13:25:04;;;;;;;;;;;18.00;99.90;;;;;;5082120;28;20387;-64
2022/05/30 13:27:30;;;;;;;;;;;18.10;99.90;;;;;;5092076;28;19947;-63
2022/05/30 13:30:00;;;;;;;;;;;18.00;99.90;;;;;;5092891;28;20332;-64
2022/05/30 13:32:25;;;;;;;;;;;18.20;99.90;;;;;;5092563;28;20011;-64
2022/05/30 13:34:52;;;;;;;;;;;18.10;99.90;;;;;;5092349;28;19999;-63
2022/05/30 13:37:24;;;;;;;;;;;18.10;99.90;;;;;;5092071;28;19974;-64
2022/05/30 13:39:51;;;;;;;;;;;18.10;99.90;;;;;;5091864;28;19919;-63
2022/05/30 13:42:16;;;;;;;;;;;18.10;99.90;;;;;;5091094;28;19916;-66
2022/05/30 13:44:42;;;;;;;;;;;18.10;99.90;;;;;;5092097;28;19912;-64
2022/05/30 13:47:13;;;;;;;;;;;18.20;99.90;;;;;;5092335;28;19916;-63
2022/05/30 13:49:40;;;;;;;;;;;18.10;99.90;;;;;;5090453;28;19912;-64
2022/05/30 13:52:13;;;;;;;;;;;18.10;99.90;;;;;;5092664;28;19912;-64
2022/05/30 13:54:41;;;;;;;;;;;18.10;99.90;;;;;;5092224;28;19955;-64
2022/05/30 13:57:08;;;;;;;;;;;18.20;99.90;;;;;;5091812;28;19912;-63
2022/05/30 13:59:36;;;;;;;;;;;18.20;99.90;;;;;;5080611;28;19912;-65
2022/05/30 14:02:15;;;;;;;;;;;18.30;99.90;;;;;;5071420;28;19969;-63
2022/05/30 14:05:02;;;;;;;;;;;18.30;99.90;;;;;;5071394;28;20071;-64
2022/05/30 14:07:31;;;;;;;;;;;18.30;99.90;;;;;;5071136;28;19916;-64
2022/05/30 14:09:58;;;;;;;;;;;18.40;99.90;;;;;;5071628;28;19912;-64
2022/05/30 14:12:31;;;;;;;;;;;18.30;99.90;;;;;;5070551;28;19920;-65
2022/05/30 14:15:12;;;;;;;;;;;18.30;99.90;;;;;;5070282;28;20321;-64
2022/05/30 14:17:38;;;;;;;;;;;18.30;99.90;;;;;;5071507;28;19971;-64
2022/05/30 14:20:04;;;;;;;;;;;18.30;99.90;;;;;;5071604;28;20341;-63
2022/05/30 14:22:30;;;;;;;;;;;18.40;99.90;;;;;;5069939;28;20015;-64
2022/05/30 14:25:00;;;;;;;;;;;18.30;99.90;;;;;;5079845;28;19912;-62
2022/05/30 14:27:29;;;;;;;;;;;18.30;99.90;;;;;;5091011;28;19912;-64
2022/05/30 14:29:59;;;;;;;;;;;18.30;99.90;;;;;;5091186;28;19912;-64
2022/05/30 14:32:29;;;;;;;;;;;18.40;99.90;;;;;;5089892;28;19912;-64
2022/05/30 14:35:04;;;;;;;;;;;18.30;99.90;;;;;;5091044;28;19916;-64
2022/05/30 14:37:37;;;;;;;;;;;18.40;99.90;;;;;;5091105;28;20356;-64
2022/05/30 14:40:32;;;;;;;;;;;18.40;99.90;;;;;;5091099;28;20361;-65
2022/05/30 14:42:58;;;;;;;;;;;18.40;99.90;;;;;;5082004;28;19923;-64
2022/05/30 14:45:29;;;;;;;;;;;18.40;99.90;;;;;;5091225;28;19912;-64
2022/05/30 14:48:05;;;;;;;;;;;18.40;99.90;;;;;;5090974;28;19912;-64
2022/05/30 14:51:00;;;;;;;;;;;18.40;99.90;;;;;;5093841;28;20438;-65